createdAt,value
2022-10-14T00:00:03.543Z,89.05
2022-10-14T00:00:43.391Z,82.30
2022-10-14T00:01:16.305Z,91.67
2022-10-14T00:01:49.278Z,90.45
2022-10-14T00:02:21.195Z,96.73
2022-10-14T00:02:52.959Z,91.40
2022-10-14T00:03:24.895Z,90.72
2022-10-14T00:03:57.654Z,88.63
2022-10-14T00:04:30.197Z,97.50
2022-10-14T00:05:01.931Z,91.30
2022-10-14T00:05:34.840Z,91.43
2022-10-14T00:06:07.163Z,98.10
2022-10-14T00:06:38.936Z,93.75
2022-10-14T00:07:11.630Z,87.78
2022-10-14T00:07:44.544Z,91.25
2022-10-14T00:08:16.366Z,92.03
2022-10-14T00:08:49.220Z,89.57
2022-10-14T00:09:20.984Z,97.80
2022-10-14T00:09:52.879Z,95.32
2022-10-14T00:10:24.778Z,98.90
2022-10-14T00:10:57.702Z,96.93
2022-10-14T00:11:31.783Z,101.03
2022-10-14T00:12:03.862Z,101.15
2022-10-14T00:12:36.872Z,100.80
2022-10-14T00:13:08.723Z,94.03
2022-10-14T00:13:40.935Z,103.78
2022-10-14T00:14:14.325Z,102.68
2022-10-14T00:14:46.208Z,109.07
2022-10-14T00:15:19.557Z,101.60
2022-10-14T00:15:51.414Z,103.97
2022-10-14T00:16:26.151Z,105.05
2022-10-14T00:16:58.047Z,100.20
2022-10-14T00:17:30.039Z,111.82
2022-10-14T00:18:03.121Z,131.93
2022-10-14T00:18:35.197Z,129.18
2022-10-14T00:19:07.673Z,141.68
2022-10-14T00:19:40.508Z,155.18
2022-10-14T00:20:12.324Z,128.10
2022-10-14T00:20:44.225Z,155.70
2022-10-14T00:21:17.261Z,258.80
2022-10-14T00:21:49.361Z,204.15
2022-10-14T00:22:22.287Z,211.65
2022-10-14T00:22:54.281Z,218.82
2022-10-14T00:23:26.899Z,293.77
2022-10-14T00:24:00.044Z,298.00
2022-10-14T00:24:34.222Z,285.00
2022-10-14T00:25:06.500Z,321.33
2022-10-14T00:25:40.616Z,228.80
2022-10-14T00:26:16.024Z,416.42
2022-10-14T00:26:52.214Z,353.27
2022-10-14T00:27:24.287Z,292.48
2022-10-14T00:27:56.478Z,328.77
2022-10-14T00:28:29.511Z,339.20
2022-10-14T00:29:03.122Z,272.38
2022-10-14T00:29:36.037Z,288.73
2022-10-14T00:30:08.449Z,261.48
2022-10-14T00:30:42.595Z,242.75
2022-10-14T00:31:15.305Z,371.98
2022-10-14T00:31:49.360Z,308.23
2022-10-14T00:32:22.167Z,274.55
2022-10-14T00:32:56.066Z,249.68
2022-10-14T00:33:28.428Z,267.63
2022-10-14T00:34:05.094Z,275.10
2022-10-14T00:34:38.283Z,313.02
2022-10-14T00:35:10.553Z,260.48
2022-10-14T00:35:43.410Z,224.27
2022-10-14T00:36:16.362Z,262.73
2022-10-14T00:36:48.354Z,297.42
2022-10-14T00:37:24.770Z,328.55
2022-10-14T00:37:59.032Z,283.92
2022-10-14T00:38:30.862Z,311.33
2022-10-14T00:39:03.757Z,283.45
2022-10-14T00:39:37.271Z,254.82
2022-10-14T00:40:09.856Z,301.55
2022-10-14T00:40:42.824Z,394.08
2022-10-14T00:41:16.216Z,359.77
2022-10-14T00:41:52.027Z,326.60
2022-10-14T00:42:23.844Z,415.38
2022-10-14T00:42:55.646Z,433.95
2022-10-14T00:43:32.251Z,468.02
2022-10-14T00:44:05.549Z,478.60
2022-10-14T00:45:11.491Z,373.63
2022-10-14T00:45:44.626Z,530.23
2022-10-14T00:46:16.458Z,540.28
2022-10-14T00:46:51.140Z,463.38
2022-10-14T00:47:23.554Z,441.20
2022-10-14T00:47:55.500Z,423.98
2022-10-14T00:48:28.754Z,534.25
2022-10-14T00:49:02.244Z,551.17
2022-10-14T00:49:37.249Z,538.15
2022-10-14T00:50:12.916Z,496.23
2022-10-14T00:50:45.471Z,525.28
2022-10-14T00:51:17.745Z,556.42
2022-10-14T00:51:56.347Z,660.22
2022-10-14T00:52:28.709Z,618.92
2022-10-14T00:53:00.672Z,664.00
2022-10-14T00:53:33.928Z,644.35
2022-10-14T00:54:06.105Z,608.47
2022-10-14T00:54:39.568Z,460.85
2022-10-14T00:55:15.081Z,464.58
2022-10-14T00:55:48.118Z,455.92
2022-10-14T00:56:22.503Z,394.38
2022-10-14T00:56:55.669Z,497.83
2022-10-14T00:57:28.065Z,525.38
2022-10-14T00:57:59.930Z,488.17
2022-10-14T00:58:31.788Z,496.33
2022-10-14T00:59:05.606Z,468.48
2022-10-14T00:59:37.858Z,477.13
2022-10-14T01:00:11.766Z,443.50
2022-10-14T01:00:46.014Z,467.27
2022-10-14T01:01:17.977Z,494.95
2022-10-14T01:01:50.371Z,488.83
2022-10-14T01:02:22.160Z,483.55
2022-10-14T01:02:56.916Z,371.20
2022-10-14T01:03:28.661Z,566.70
2022-10-14T01:04:00.618Z,435.15
2022-10-14T01:04:34.244Z,576.60
2022-10-14T01:05:07.086Z,515.65
2022-10-14T01:05:41.014Z,478.23
2022-10-14T01:06:16.492Z,477.50
2022-10-14T01:06:53.868Z,477.05
2022-10-14T01:07:31.780Z,527.65
2022-10-14T01:08:06.055Z,554.92
2022-10-14T01:08:45.098Z,593.38
2022-10-14T01:09:23.607Z,413.25
2022-10-14T01:10:03.207Z,348.63
2022-10-14T01:10:40.708Z,311.70
2022-10-14T01:11:16.035Z,504.52
2022-10-14T01:12:16.214Z,367.98
2022-10-14T01:12:53.190Z,388.73
2022-10-14T01:13:26.704Z,417.35
2022-10-14T01:14:04.978Z,403.95
2022-10-14T01:14:43.459Z,363.63
2022-10-14T01:15:27.832Z,335.20
2022-10-14T01:16:06.459Z,387.20
2022-10-14T01:16:43.368Z,235.55
2022-10-14T01:17:20.975Z,305.42
2022-10-14T01:17:57.956Z,266.38
2022-10-14T01:18:36.253Z,289.70
2022-10-14T01:19:15.359Z,327.15
2022-10-14T01:20:08.859Z,298.35
2022-10-14T01:20:56.568Z,327.70
2022-10-14T01:21:34.229Z,280.38
2022-10-14T01:22:08.320Z,255.05
2022-10-14T01:22:43.125Z,217.32
2022-10-14T01:23:33.074Z,185.70
2022-10-14T01:24:19.119Z,231.35
2022-10-14T01:24:57.384Z,236.60
2022-10-14T01:25:32.716Z,190.65
2022-10-14T01:26:13.492Z,169.95
2022-10-14T01:27:00.031Z,215.00
2022-10-14T01:27:44.067Z,209.75
2022-10-14T01:28:20.863Z,183.57
2022-10-14T01:29:03.250Z,192.82
2022-10-14T01:29:54.653Z,141.02
2022-10-14T01:30:29.153Z,180.80
2022-10-14T01:31:04.637Z,183.75
2022-10-14T01:31:38.625Z,184.40
2022-10-14T01:32:11.978Z,178.48
2022-10-14T01:32:49.548Z,153.82
2022-10-14T01:33:23.879Z,157.15
2022-10-14T01:33:57.219Z,170.02
2022-10-14T01:34:32.850Z,155.52
2022-10-14T01:35:09.800Z,193.43
2022-10-14T01:35:52.027Z,143.20
2022-10-14T01:36:27.078Z,177.52
2022-10-14T01:37:00.366Z,163.27
2022-10-14T01:37:35.235Z,187.60
2022-10-14T01:38:10.585Z,213.52
2022-10-14T01:38:45.039Z,230.80
2022-10-14T01:39:21.233Z,222.55
2022-10-14T01:39:55.928Z,137.73
2022-10-14T01:40:32.725Z,142.32
2022-10-14T01:41:08.554Z,184.77
2022-10-14T01:41:43.492Z,152.65
2022-10-14T01:42:16.586Z,143.60
2022-10-14T01:42:49.809Z,169.30
2022-10-14T01:43:23.169Z,150.80
2022-10-14T01:43:56.571Z,123.65
2022-10-14T01:44:31.541Z,122.43
2022-10-14T01:45:05.377Z,133.73
2022-10-14T01:45:41.073Z,143.50
2022-10-14T01:46:18.199Z,131.55
2022-10-14T01:46:51.599Z,123.00
2022-10-14T01:47:24.922Z,128.25
2022-10-14T01:47:58.678Z,128.15
2022-10-14T01:48:34.380Z,123.22
2022-10-14T01:49:08.789Z,118.60
2022-10-14T01:49:45.143Z,125.55
2022-10-14T01:50:18.508Z,119.53
2022-10-14T01:50:52.354Z,124.85
2022-10-14T01:51:30.642Z,121.13
2022-10-14T01:52:05.874Z,126.32
2022-10-14T01:52:40.383Z,133.02
2022-10-14T01:53:15.590Z,116.57
2022-10-14T01:53:57.886Z,120.87
2022-10-14T01:54:31.996Z,113.88
2022-10-14T01:55:07.014Z,115.32
2022-10-14T01:55:43.580Z,128.00
2022-10-14T01:56:16.340Z,135.25
2022-10-14T01:56:49.708Z,122.47
2022-10-14T01:57:25.275Z,128.50
2022-10-14T01:57:58.642Z,117.38
2022-10-14T01:58:32.825Z,123.88
2022-10-14T01:59:07.700Z,125.15
2022-10-14T01:59:39.934Z,115.13
2022-10-14T02:00:13.425Z,120.10
2022-10-14T02:00:49.833Z,123.10
2022-10-14T02:01:21.730Z,127.28
2022-10-14T02:01:54.560Z,115.85
2022-10-14T02:02:26.465Z,118.47
2022-10-14T02:02:58.245Z,114.28
2022-10-14T02:03:39.546Z,118.20
2022-10-14T02:04:14.743Z,126.65
2022-10-14T02:04:46.609Z,119.30
2022-10-14T02:05:22.417Z,120.13
2022-10-14T02:05:56.827Z,127.75
2022-10-14T02:06:31.136Z,126.38
2022-10-14T02:07:06.973Z,130.00
2022-10-14T02:07:40.195Z,122.60
2022-10-14T02:08:14.402Z,119.55
2022-10-14T02:08:57.497Z,126.00
2022-10-14T02:09:33.230Z,128.68
2022-10-14T02:10:10.972Z,127.75
2022-10-14T02:10:52.676Z,130.40
2022-10-14T02:11:26.772Z,126.97
2022-10-14T02:12:04.532Z,123.95
2022-10-14T02:12:39.903Z,130.95
2022-10-14T02:13:22.047Z,136.38
2022-10-14T02:14:00.649Z,133.38
2022-10-14T02:14:38.291Z,125.90
2022-10-14T02:15:16.572Z,124.55
2022-10-14T02:15:57.647Z,128.70
2022-10-14T02:16:38.881Z,135.20
2022-10-14T02:17:12.903Z,126.50
2022-10-14T02:17:52.935Z,129.32
2022-10-14T02:18:30.834Z,135.45
2022-10-14T02:19:09.215Z,122.43
2022-10-14T02:19:44.235Z,138.85
2022-10-14T02:20:22.300Z,153.15
2022-10-14T02:20:58.179Z,149.32
2022-10-14T02:21:32.707Z,145.88
2022-10-14T02:22:09.807Z,145.18
2022-10-14T02:22:43.353Z,142.88
2022-10-14T02:23:16.950Z,153.88
2022-10-14T02:23:51.917Z,146.13
2022-10-14T02:24:26.884Z,152.82
2022-10-14T02:25:00.761Z,175.45
2022-10-14T02:25:36.002Z,163.35
2022-10-14T02:26:08.571Z,168.05
2022-10-14T02:26:42.441Z,181.43
2022-10-14T02:27:16.596Z,170.55
2022-10-14T02:27:49.532Z,169.50
2022-10-14T02:28:22.925Z,186.82
2022-10-14T02:28:58.023Z,161.27
2022-10-14T02:29:30.689Z,163.02
2022-10-14T02:30:04.894Z,175.73
2022-10-14T02:30:40.183Z,174.68
2022-10-14T02:31:14.337Z,175.70
2022-10-14T02:31:49.476Z,174.15
2022-10-14T02:32:23.445Z,167.95
2022-10-14T02:32:56.358Z,182.43
2022-10-14T02:33:33.258Z,190.70
2022-10-14T02:34:07.386Z,171.55
2022-10-14T02:34:42.283Z,168.60
2022-10-14T02:35:15.816Z,172.15
2022-10-14T02:35:49.149Z,202.25
2022-10-14T02:36:22.439Z,182.55
2022-10-14T02:36:55.121Z,184.02
2022-10-14T02:37:29.001Z,193.95
2022-10-14T02:38:04.791Z,174.70
2022-10-14T02:38:37.132Z,193.63
2022-10-14T02:39:12.173Z,181.00
2022-10-14T02:39:46.230Z,179.52
2022-10-14T02:40:20.735Z,181.45
2022-10-14T02:40:53.925Z,192.57
2022-10-14T02:41:28.189Z,183.90
2022-10-14T02:42:00.053Z,183.90
2022-10-14T02:42:33.155Z,183.75
2022-10-14T02:43:10.083Z,180.50
2022-10-14T02:43:43.950Z,180.02
2022-10-14T02:44:16.713Z,178.38
2022-10-14T02:44:54.549Z,180.48
2022-10-14T02:45:27.039Z,176.57
2022-10-14T02:46:01.401Z,173.32
2022-10-14T02:46:35.223Z,174.50
2022-10-14T02:47:07.015Z,163.77
2022-10-14T02:47:39.889Z,178.35
2022-10-14T02:48:12.716Z,181.27
2022-10-14T02:48:44.539Z,180.60
2022-10-14T02:49:17.883Z,170.50
2022-10-14T02:49:49.729Z,162.35
2022-10-14T02:50:21.908Z,171.68
2022-10-14T02:50:56.464Z,170.98
2022-10-14T02:51:29.315Z,170.80
2022-10-14T02:52:01.417Z,166.35
2022-10-14T02:52:36.407Z,161.52
2022-10-14T02:53:09.678Z,169.43
2022-10-14T02:53:42.759Z,155.85
2022-10-14T02:54:15.094Z,161.68
2022-10-14T02:54:50.112Z,160.63
2022-10-14T02:55:22.326Z,154.52
2022-10-14T02:55:54.011Z,153.80
2022-10-14T02:56:26.767Z,161.07
2022-10-14T02:56:58.588Z,154.45
2022-10-14T02:57:30.579Z,161.85
2022-10-14T02:58:03.461Z,146.05
2022-10-14T02:58:35.414Z,151.35
2022-10-14T02:59:07.465Z,149.82
2022-10-14T02:59:40.769Z,143.52
2022-10-14T03:00:13.106Z,142.70
2022-10-14T03:00:48.737Z,133.00
2022-10-14T03:01:22.357Z,145.13
2022-10-14T03:01:55.822Z,133.97
2022-10-14T03:02:28.329Z,134.23
2022-10-14T03:03:02.605Z,132.07
2022-10-14T03:03:36.366Z,138.18
2022-10-14T03:04:08.583Z,133.50
2022-10-14T03:04:41.714Z,134.45
2022-10-14T03:05:14.347Z,132.20
2022-10-14T03:05:47.263Z,134.32
2022-10-14T03:06:20.487Z,135.60
2022-10-14T03:06:53.909Z,141.95
2022-10-14T03:07:30.853Z,124.47
2022-10-14T03:08:06.869Z,114.80
2022-10-14T03:08:39.067Z,119.47
2022-10-14T03:09:15.503Z,129.93
2022-10-14T03:09:49.487Z,134.07
2022-10-14T03:10:22.175Z,137.80
2022-10-14T03:10:55.265Z,173.93
2022-10-14T03:11:27.407Z,152.32
2022-10-14T03:12:05.503Z,148.27
2022-10-14T03:12:38.477Z,160.57
2022-10-14T03:13:14.419Z,172.63
2022-10-14T03:13:50.338Z,183.70
2022-10-14T03:14:25.851Z,180.45
2022-10-14T03:14:58.249Z,168.90
2022-10-14T03:15:31.389Z,180.98
2022-10-14T03:16:05.644Z,173.35
2022-10-14T03:16:39.835Z,179.20
2022-10-14T03:17:13.323Z,215.20
2022-10-14T03:17:46.353Z,210.45
2022-10-14T03:18:19.293Z,215.30
2022-10-14T03:18:53.546Z,245.80
2022-10-14T03:19:38.463Z,200.73
2022-10-14T03:20:12.424Z,185.88
2022-10-14T03:20:52.659Z,179.45
2022-10-14T03:21:29.261Z,257.83
2022-10-14T03:22:01.063Z,189.75
2022-10-14T03:22:34.325Z,208.60
2022-10-14T03:23:06.173Z,218.05
2022-10-14T03:23:40.979Z,209.88
2022-10-14T03:24:14.001Z,182.90
2022-10-14T03:24:46.952Z,193.98
2022-10-14T03:25:49.492Z,219.95
2022-10-14T03:26:27.305Z,234.38
2022-10-14T03:26:59.239Z,238.98
2022-10-14T03:27:32.575Z,274.45
2022-10-14T03:28:09.396Z,210.07
2022-10-14T03:28:52.309Z,237.50
2022-10-14T03:29:28.412Z,190.95
2022-10-14T03:30:14.291Z,231.63
2022-10-14T03:31:01.534Z,295.35
2022-10-14T03:31:49.069Z,261.42
2022-10-14T03:32:36.925Z,201.88
2022-10-14T03:33:47.197Z,234.15
2022-10-14T03:34:23.797Z,321.40
2022-10-14T03:35:04.560Z,235.18
2022-10-14T03:35:36.895Z,247.82
2022-10-14T03:36:13.325Z,273.70
2022-10-14T03:36:50.109Z,268.33
2022-10-14T03:37:22.055Z,279.55
2022-10-14T03:37:56.809Z,269.60
2022-10-14T03:38:34.444Z,262.10
2022-10-14T03:39:07.393Z,192.45
2022-10-14T03:39:46.730Z,244.40
2022-10-14T03:40:19.634Z,265.98
2022-10-14T03:40:51.965Z,275.10
2022-10-14T03:41:27.240Z,211.60
2022-10-14T03:41:59.576Z,217.27
2022-10-14T03:42:38.875Z,225.70
2022-10-14T03:43:12.556Z,236.10
2022-10-14T03:44:10.908Z,218.80
2022-10-14T03:44:46.800Z,242.18
2022-10-14T03:45:23.916Z,241.20
2022-10-14T03:45:57.849Z,260.20
2022-10-14T03:46:31.503Z,241.48
2022-10-14T03:47:04.828Z,251.55
2022-10-14T03:47:39.748Z,262.27
2022-10-14T03:48:13.137Z,241.00
2022-10-14T03:48:46.094Z,212.68
2022-10-14T03:49:18.129Z,185.65
2022-10-14T03:49:51.162Z,215.50
2022-10-14T03:50:34.852Z,188.77
2022-10-14T03:51:06.895Z,212.15
2022-10-14T03:51:40.897Z,227.07
2022-10-14T03:52:21.067Z,238.70
2022-10-14T03:53:04.886Z,248.65
2022-10-14T03:53:41.116Z,229.43
2022-10-14T03:54:13.273Z,242.68
2022-10-14T03:54:46.289Z,244.00
2022-10-14T03:55:21.143Z,215.73
2022-10-14T03:55:55.502Z,231.65
2022-10-14T03:56:28.552Z,239.02
2022-10-14T03:57:00.679Z,209.07
2022-10-14T03:57:40.459Z,191.05
2022-10-14T03:58:13.814Z,220.93
2022-10-14T03:58:52.803Z,193.68
2022-10-14T03:59:26.828Z,175.13
2022-10-14T04:00:02.537Z,184.63
2022-10-14T04:00:54.497Z,179.43
2022-10-14T04:01:53.194Z,184.55
2022-10-14T04:02:28.889Z,180.70
2022-10-14T04:03:04.130Z,204.65
2022-10-14T04:03:46.521Z,191.65
2022-10-14T04:04:18.463Z,189.90
2022-10-14T04:04:51.331Z,207.52
2022-10-14T04:05:27.272Z,175.95
2022-10-14T04:05:59.151Z,179.27
2022-10-14T04:06:33.405Z,186.98
2022-10-14T04:07:09.019Z,177.35
2022-10-14T04:07:47.775Z,176.20
2022-10-14T04:08:20.743Z,175.40
2022-10-14T04:09:01.550Z,175.27
2022-10-14T04:09:39.552Z,172.48
2022-10-14T04:10:13.851Z,174.05
2022-10-14T04:10:52.322Z,170.95
2022-10-14T04:11:24.413Z,174.43
2022-10-14T04:12:01.477Z,181.68
2022-10-14T04:12:53.839Z,201.55
2022-10-14T04:13:33.174Z,195.00
2022-10-14T04:14:05.789Z,186.15
2022-10-14T04:14:43.216Z,184.85
2022-10-14T04:15:16.713Z,194.25
2022-10-14T04:16:09.029Z,186.65
2022-10-14T04:17:05.901Z,205.60
2022-10-14T04:17:37.866Z,184.85
2022-10-14T04:18:16.737Z,204.25
2022-10-14T04:18:51.759Z,201.68
2022-10-14T04:19:31.607Z,200.02
2022-10-14T04:20:06.716Z,196.80
2022-10-14T04:20:47.516Z,193.50
2022-10-14T04:21:31.076Z,204.02
2022-10-14T04:22:04.587Z,204.43
2022-10-14T04:22:38.300Z,204.48
2022-10-14T04:23:14.415Z,197.50
2022-10-14T04:23:50.873Z,216.68
2022-10-14T04:24:25.692Z,210.88
2022-10-14T04:25:02.286Z,214.68
2022-10-14T04:25:34.334Z,209.43
2022-10-14T04:26:10.448Z,207.82
2022-10-14T04:26:51.432Z,209.38
2022-10-14T04:27:43.073Z,213.77
2022-10-14T04:28:15.519Z,213.20
2022-10-14T04:28:53.258Z,222.07
2022-10-14T04:29:37.384Z,214.60
2022-10-14T04:30:19.066Z,201.93
2022-10-14T04:30:56.821Z,221.00
2022-10-14T04:32:06.916Z,202.18
2022-10-14T04:32:47.134Z,205.98
2022-10-14T04:33:24.201Z,216.73
2022-10-14T04:33:56.781Z,211.50
2022-10-14T04:34:36.446Z,221.70
2022-10-14T04:35:11.216Z,224.27
2022-10-14T04:35:48.358Z,214.00
2022-10-14T04:36:29.317Z,219.70
2022-10-14T04:37:03.711Z,205.80
2022-10-14T04:38:43.390Z,217.55
2022-10-14T04:39:16.678Z,209.98
2022-10-14T04:40:06.651Z,214.38
2022-10-14T04:40:57.028Z,233.40
2022-10-14T04:41:30.973Z,228.70
2022-10-14T04:42:12.054Z,216.43
2022-10-14T04:43:15.343Z,226.50
2022-10-14T04:43:49.459Z,223.90
2022-10-14T04:44:33.938Z,230.77
2022-10-14T04:45:12.210Z,244.77
2022-10-14T04:45:58.336Z,238.45
2022-10-14T04:46:36.075Z,240.00
2022-10-14T04:47:09.280Z,244.60
2022-10-14T04:47:48.655Z,245.70
2022-10-14T04:48:35.277Z,261.02
2022-10-14T04:49:11.048Z,242.45
2022-10-14T04:49:50.875Z,234.35
2022-10-14T04:50:28.008Z,232.65
2022-10-14T04:51:21.463Z,243.68
2022-10-14T04:52:14.877Z,229.95
2022-10-14T04:52:53.648Z,237.52
2022-10-14T04:53:25.798Z,232.80
2022-10-14T04:54:28.582Z,248.20
2022-10-14T04:55:24.196Z,228.88
2022-10-14T04:56:03.031Z,260.50
2022-10-14T04:56:35.318Z,240.77
2022-10-14T04:57:10.284Z,232.98
2022-10-14T04:57:44.692Z,232.65
2022-10-14T04:58:19.156Z,258.30
2022-10-14T04:59:01.155Z,238.52
